Time;durP1;ratioP1;P1;durP2;ratioP2;P2;SDS_P1;SDS_P2;PMS_P1;PMS_P2;Temp;Humidity;BMP_temperature;BMP_pressure;BME280_temperature;BME280_humidity;BME280_pressure;Samples;Min_cycle;Max_cycle;Signal;HPM_P1;HPM_P2
2022/10/09 00:01:51;;;;;;;;;;;5.60;99.90;;;;;;5075228;28;19926;-55
2022/10/09 00:04:22;;;;;;;;;;;5.60;99.90;;;;;;5074679;28;19935;-55
2022/10/09 00:06:49;;;;;;;;;;;5.50;99.90;;;;;;5069742;28;19931;-55
2022/10/09 00:09:18;;;;;;;;;;;5.50;99.90;;;;;;5088432;28;19932;-55
2022/10/09 00:11:46;;;;;;;;;;;5.50;99.90;;;;;;5075214;28;19924;-55
2022/10/09 00:14:13;;;;;;;;;;;5.40;99.90;;;;;;5085548;28;19924;-55
2022/10/09 00:16:41;;;;;;;;;;;5.40;99.90;;;;;;5113084;28;19923;-55
2022/10/09 00:19:08;;;;;;;;;;;5.40;99.90;;;;;;5096679;28;19928;-55
2022/10/09 00:21:36;;;;;;;;;;;5.40;99.90;;;;;;5087626;28;19924;-55
2022/10/09 00:24:06;;;;;;;;;;;5.30;99.90;;;;;;5096815;27;19925;-55
2022/10/09 00:26:33;;;;;;;;;;;5.30;99.90;;;;;;5087635;28;19935;-56
2022/10/09 00:29:02;;;;;;;;;;;5.30;99.90;;;;;;5085434;28;20291;-55
2022/10/09 00:31:32;;;;;;;;;;;5.30;99.90;;;;;;5087969;28;19928;-55
2022/10/09 00:34:02;;;;;;;;;;;5.20;99.90;;;;;;5076097;28;19928;-55
2022/10/09 00:36:29;;;;;;;;;;;5.20;99.90;;;;;;5072085;28;19935;-56
2022/10/09 00:38:57;;;;;;;;;;;5.20;99.90;;;;;;5079215;28;20293;-55
2022/10/09 00:41:27;;;;;;;;;;;5.20;99.90;;;;;;5081800;28;20383;-55
2022/10/09 00:43:55;;;;;;;;;;;5.20;99.90;;;;;;5103483;28;19930;-57
2022/10/09 00:46:24;;;;;;;;;;;5.20;99.90;;;;;;5075789;28;19924;-57
2022/10/09 00:49:12;;;;;;;;;;;5.20;99.90;;;;;;5086029;28;19924;-61
2022/10/09 00:51:40;;;;;;;;;;;5.20;99.90;;;;;;5071882;28;19939;-56
2022/10/09 00:54:10;;;;;;;;;;;5.20;99.90;;;;;;5071040;28;19929;-57
2022/10/09 00:56:37;;;;;;;;;;;5.20;99.90;;;;;;5093924;28;20371;-57
2022/10/09 00:59:05;;;;;;;;;;;5.20;99.90;;;;;;5080301;28;19931;-57
2022/10/09 01:01:36;;;;;;;;;;;5.20;99.90;;;;;;5070969;28;19935;-55
2022/10/09 01:04:04;;;;;;;;;;;5.20;99.90;;;;;;5078912;28;19933;-55
2022/10/09 01:06:31;;;;;;;;;;;5.20;99.90;;;;;;5069876;28;19936;-55
2022/10/09 01:09:07;;;;;;;;;;;5.20;99.90;;;;;;5076976;28;19924;-55
2022/10/09 01:11:35;;;;;;;;;;;5.20;99.90;;;;;;5069214;28;19931;-55
2022/10/09 01:14:06;;;;;;;;;;;5.20;99.90;;;;;;5082871;28;19924;-55
2022/10/09 01:16:42;;;;;;;;;;;5.20;99.90;;;;;;5088422;28;19935;-55
2022/10/09 01:19:15;;;;;;;;;;;5.20;99.90;;;;;;5089380;28;20418;-56
2022/10/09 01:21:48;;;;;;;;;;;5.20;99.90;;;;;;5081582;28;19937;-56
2022/10/09 01:24:32;;;;;;;;;;;5.20;99.90;;;;;;5074225;28;19951;-55
2022/10/09 01:27:04;;;;;;;;;;;5.10;99.90;;;;;;5070897;28;19931;-55
2022/10/09 01:29:39;;;;;;;;;;;5.10;99.90;;;;;;5077149;28;19924;-56
2022/10/09 01:32:08;;;;;;;;;;;5.10;99.90;;;;;;5071935;28;19924;-56
2022/10/09 01:34:37;;;;;;;;;;;5.00;99.90;;;;;;5080848;28;20070;-56
2022/10/09 01:37:05;;;;;;;;;;;5.00;99.90;;;;;;5077804;28;19936;-56
2022/10/09 01:39:34;;;;;;;;;;;5.00;99.90;;;;;;5081486;28;20413;-55
2022/10/09 01:42:02;;;;;;;;;;;5.00;99.90;;;;;;5073227;28;19924;-56
2022/10/09 01:44:30;;;;;;;;;;;5.00;99.90;;;;;;5080272;28;19924;-56
2022/10/09 01:46:58;;;;;;;;;;;5.00;99.90;;;;;;5074851;28;19925;-56
2022/10/09 01:49:40;;;;;;;;;;;5.00;99.90;;;;;;5073931;28;19929;-56
2022/10/09 01:52:31;;;;;;;;;;;5.00;99.90;;;;;;5083855;28;19928;-56
2022/10/09 01:55:26;;;;;;;;;;;5.00;99.90;;;;;;5090179;28;19928;-56
2022/10/09 01:57:56;;;;;;;;;;;5.00;99.90;;;;;;5080617;28;19932;-57
2022/10/09 02:00:24;;;;;;;;;;;5.00;99.90;;;;;;5088273;28;19924;-56
2022/10/09 02:02:52;;;;;;;;;;;5.00;99.90;;;;;;5092205;28;19931;-56
2022/10/09 02:05:21;;;;;;;;;;;4.90;99.90;;;;;;5092697;28;20399;-56
2022/10/09 02:07:49;;;;;;;;;;;4.90;99.90;;;;;;5092656;28;19946;-56
2022/10/09 02:10:17;;;;;;;;;;;4.80;99.90;;;;;;5078308;28;19991;-56
2022/10/09 02:12:55;;;;;;;;;;;4.90;99.90;;;;;;5075277;28;19962;-57
2022/10/09 02:15:26;;;;;;;;;;;4.80;99.90;;;;;;5114267;28;19924;-56
2022/10/09 02:17:56;;;;;;;;;;;4.80;99.90;;;;;;5106749;28;19935;-56
2022/10/09 02:20:26;;;;;;;;;;;4.80;99.90;;;;;;5077295;28;19924;-56
2022/10/09 02:22:54;;;;;;;;;;;4.70;99.90;;;;;;5090950;28;19931;-56
2022/10/09 02:25:22;;;;;;;;;;;4.70;99.90;;;;;;5092427;28;19928;-56
2022/10/09 02:27:49;;;;;;;;;;;4.70;99.90;;;;;;5093071;28;19924;-56
2022/10/09 02:30:18;;;;;;;;;;;4.70;99.90;;;;;;5093641;28;19924;-55
2022/10/09 02:32:50;;;;;;;;;;;4.60;99.90;;;;;;5080252;28;20398;-56
2022/10/09 02:35:21;;;;;;;;;;;4.60;99.90;;;;;;5088245;28;19931;-56
2022/10/09 02:38:08;;;;;;;;;;;4.60;99.90;;;;;;5085967;28;19925;-56
2022/10/09 02:40:36;;;;;;;;;;;4.60;99.90;;;;;;5072961;28;19931;-56
2022/10/09 02:43:04;;;;;;;;;;;4.60;99.90;;;;;;5081563;28;19924;-57
2022/10/09 02:45:32;;;;;;;;;;;4.60;99.90;;;;;;5095907;28;20295;-57
2022/10/09 02:47:59;;;;;;;;;;;4.60;99.90;;;;;;5093155;28;19924;-56
2022/10/09 02:50:27;;;;;;;;;;;4.60;99.90;;;;;;5093236;28;19924;-57
2022/10/09 02:52:54;;;;;;;;;;;4.50;99.90;;;;;;5088110;28;19931;-55
2022/10/09 02:55:21;;;;;;;;;;;4.50;99.90;;;;;;5081025;28;19925;-55
2022/10/09 02:57:49;;;;;;;;;;;4.50;99.90;;;;;;5072650;28;20299;-56
2022/10/09 03:00:16;;;;;;;;;;;4.40;99.90;;;;;;5072725;28;19925;-55
2022/10/09 03:02:44;;;;;;;;;;;4.50;99.90;;;;;;5071268;28;19924;-55
2022/10/09 03:05:11;;;;;;;;;;;4.40;99.90;;;;;;5075713;28;19975;-56
2022/10/09 03:07:39;;;;;;;;;;;4.40;99.90;;;;;;5078541;28;19931;-57
2022/10/09 03:10:06;;;;;;;;;;;4.30;99.90;;;;;;5092758;28;20029;-57
2022/10/09 03:12:34;;;;;;;;;;;4.30;99.90;;;;;;5092757;28;19924;-57
2022/10/09 03:15:01;;;;;;;;;;;4.30;99.90;;;;;;5095424;28;19924;-56
2022/10/09 03:17:28;;;;;;;;;;;4.30;99.90;;;;;;5092461;28;20390;-56
2022/10/09 03:19:56;;;;;;;;;;;4.30;99.90;;;;;;5089178;28;19924;-56
2022/10/09 03:22:23;;;;;;;;;;;4.20;99.90;;;;;;5092377;28;19940;-56
2022/10/09 03:24:51;;;;;;;;;;;4.20;99.90;;;;;;5092431;28;19924;-56
2022/10/09 03:27:18;;;;;;;;;;;4.20;99.90;;;;;;5092500;28;20387;-57
2022/10/09 03:29:45;;;;;;;;;;;4.10;99.90;;;;;;5083049;28;19932;-57
2022/10/09 03:32:13;;;;;;;;;;;4.10;99.90;;;;;;5068459;28;20384;-57
2022/10/09 03:34:40;;;;;;;;;;;4.10;99.90;;;;;;5068709;28;20379;-56
2022/10/09 03:37:08;;;;;;;;;;;4.10;99.90;;;;;;5070840;28;19928;-56
2022/10/09 03:39:35;;;;;;;;;;;4.00;99.90;;;;;;5076057;28;19931;-57
2022/10/09 03:42:03;;;;;;;;;;;4.00;99.90;;;;;;5098042;28;19928;-57
2022/10/09 03:44:30;;;;;;;;;;;4.00;99.90;;;;;;5095980;28;19932;-57
2022/10/09 03:46:58;;;;;;;;;;;4.00;99.90;;;;;;5068482;28;19931;-56
2022/10/09 03:49:25;;;;;;;;;;;4.00;99.90;;;;;;5071707;28;19935;-56
2022/10/09 03:51:52;;;;;;;;;;;3.90;99.90;;;;;;5072302;28;19936;-56
2022/10/09 03:54:20;;;;;;;;;;;4.00;99.90;;;;;;5082678;28;20390;-56
2022/10/09 03:56:47;;;;;;;;;;;3.90;99.90;;;;;;5071639;28;20371;-57
2022/10/09 03:59:15;;;;;;;;;;;4.00;99.90;;;;;;5083110;28;19924;-57
2022/10/09 04:01:42;;;;;;;;;;;4.00;99.90;;;;;;5084725;28;19924;-57
2022/10/09 04:04:09;;;;;;;;;;;3.90;99.90;;;;;;5087240;28;19924;-55
2022/10/09 04:06:37;;;;;;;;;;;3.90;99.90;;;;;;5086445;28;19928;-55
2022/10/09 04:09:04;;;;;;;;;;;4.00;99.90;;;;;;5066021;28;19932;-56
2022/10/09 04:11:32;;;;;;;;;;;4.10;99.90;;;;;;5088383;28;19931;-56
2022/10/09 04:13:59;;;;;;;;;;;4.10;99.90;;;;;;5085119;28;20398;-56
2022/10/09 04:16:27;;;;;;;;;;;4.10;99.90;;;;;;5085791;28;19932;-56
2022/10/09 04:18:54;;;;;;;;;;;4.20;99.90;;;;;;5083491;28;19940;-57
2022/10/09 04:21:22;;;;;;;;;;;4.20;99.90;;;;;;5091621;28;20395;-57
2022/10/09 04:23:49;;;;;;;;;;;4.30;99.90;;;;;;5085524;28;19932;-57
2022/10/09 04:26:17;;;;;;;;;;;4.40;99.90;;;;;;5088909;28;20295;-56
2022/10/09 04:28:44;;;;;;;;;;;4.50;99.90;;;;;;5088307;28;20371;-55
2022/10/09 04:31:11;;;;;;;;;;;4.60;99.90;;;;;;5070661;28;19924;-56
2022/10/09 04:33:39;;;;;;;;;;;4.80;99.90;;;;;;5069592;28;19947;-57
2022/10/09 04:36:06;;;;;;;;;;;4.90;99.90;;;;;;5070307;28;19932;-55
2022/10/09 04:38:34;;;;;;;;;;;5.00;99.90;;;;;;5085446;28;19931;-57
2022/10/09 04:41:02;;;;;;;;;;;5.00;99.90;;;;;;5067931;28;19932;-57
2022/10/09 04:43:31;;;;;;;;;;;5.10;99.90;;;;;;5074473;28;19928;-56
2022/10/09 04:46:02;;;;;;;;;;;5.10;99.90;;;;;;5086260;28;19924;-57
2022/10/09 04:48:29;;;;;;;;;;;5.20;99.90;;;;;;5087780;28;19928;-56
2022/10/09 04:50:57;;;;;;;;;;;5.20;99.90;;;;;;5090783;28;19931;-56
2022/10/09 04:53:25;;;;;;;;;;;5.30;99.90;;;;;;5087122;28;19931;-56
2022/10/09 04:55:52;;;;;;;;;;;5.30;99.90;;;;;;5076531;28;19939;-57
2022/10/09 04:58:19;;;;;;;;;;;5.30;99.90;;;;;;5079562;28;19925;-56
2022/10/09 05:00:47;;;;;;;;;;;5.30;99.90;;;;;;5072184;28;19929;-56
2022/10/09 05:03:14;;;;;;;;;;;5.30;99.90;;;;;;5081070;28;19928;-56
2022/10/09 05:05:42;;;;;;;;;;;5.20;99.90;;;;;;5076281;28;19924;-57
2022/10/09 05:08:10;;;;;;;;;;;5.20;99.90;;;;;;5080278;28;19935;-56
2022/10/09 05:10:38;;;;;;;;;;;5.30;99.90;;;;;;5088258;28;19935;-56
2022/10/09 05:13:06;;;;;;;;;;;5.30;99.90;;;;;;5086239;28;19924;-57
2022/10/09 05:15:35;;;;;;;;;;;5.20;99.90;;;;;;5099012;28;19936;-56
2022/10/09 05:18:03;;;;;;;;;;;5.30;99.90;;;;;;5068361;28;19932;-56
2022/10/09 05:20:31;;;;;;;;;;;5.30;99.90;;;;;;5079866;28;19928;-56
2022/10/09 05:22:59;;;;;;;;;;;5.20;99.90;;;;;;5085809;28;19924;-56
2022/10/09 05:25:26;;;;;;;;;;;5.20;99.90;;;;;;5067589;28;19928;-57
2022/10/09 05:27:53;;;;;;;;;;;5.30;99.90;;;;;;5070007;28;19928;-57
2022/10/09 05:30:21;;;;;;;;;;;5.30;99.90;;;;;;5079237;28;20376;-57
2022/10/09 05:32:49;;;;;;;;;;;5.20;99.90;;;;;;5096717;28;19924;-57
2022/10/09 05:35:17;;;;;;;;;;;5.30;99.90;;;;;;5100638;28;19935;-57
2022/10/09 05:37:44;;;;;;;;;;;5.20;99.90;;;;;;5075336;28;20288;-57
2022/10/09 05:40:12;;;;;;;;;;;5.20;99.90;;;;;;5086759;28;19924;-56
2022/10/09 05:42:40;;;;;;;;;;;5.20;99.90;;;;;;5088938;28;19924;-57
2022/10/09 05:45:08;;;;;;;;;;;5.20;99.90;;;;;;5098100;28;19932;-57
2022/10/09 05:47:35;;;;;;;;;;;5.00;99.90;;;;;;5076143;28;19947;-56
2022/10/09 05:50:03;;;;;;;;;;;5.20;99.90;;;;;;5074686;28;19951;-57
2022/10/09 05:52:33;;;;;;;;;;;5.20;99.90;;;;;;5082193;28;20388;-57
2022/10/09 05:55:01;;;;;;;;;;;5.20;99.90;;;;;;5066068;28;19936;-57
2022/10/09 05:57:28;;;;;;;;;;;5.20;99.90;;;;;;5066777;28;19924;-57
2022/10/09 05:59:56;;;;;;;;;;;5.20;99.90;;;;;;5081071;28;19955;-57
2022/10/09 06:02:23;;;;;;;;;;;5.20;99.90;;;;;;5085405;28;19924;-57
2022/10/09 06:04:51;;;;;;;;;;;5.10;99.90;;;;;;5099500;28;19924;-57
2022/10/09 06:07:19;;;;;;;;;;;5.20;99.90;;;;;;5067221;28;21815;-56
2022/10/09 06:09:46;;;;;;;;;;;5.20;99.90;;;;;;5071919;28;19932;-57
2022/10/09 06:12:13;;;;;;;;;;;5.20;99.90;;;;;;5086154;28;20099;-56
2022/10/09 06:14:41;;;;;;;;;;;5.20;99.90;;;;;;5104887;28;19924;-56
2022/10/09 06:17:09;;;;;;;;;;;5.10;99.90;;;;;;5091190;28;19928;-56
2022/10/09 06:19:36;;;;;;;;;;;5.10;99.90;;;;;;5071757;28;20382;-56
2022/10/09 06:22:04;;;;;;;;;;;5.10;99.90;;;;;;5072033;28;20269;-57
2022/10/09 06:24:32;;;;;;;;;;;5.10;99.90;;;;;;5081038;28;19924;-58
2022/10/09 06:26:59;;;;;;;;;;;5.10;99.90;;;;;;5067930;28;19931;-57
2022/10/09 06:29:28;;;;;;;;;;;5.10;99.90;;;;;;5073912;28;19931;-57
2022/10/09 06:31:56;;;;;;;;;;;5.10;99.90;;;;;;5085319;28;20383;-57
2022/10/09 06:34:24;;;;;;;;;;;5.10;99.90;;;;;;5071051;28;19932;-57
2022/10/09 06:36:51;;;;;;;;;;;5.10;99.90;;;;;;5080042;28;19924;-56
2022/10/09 06:39:19;;;;;;;;;;;5.10;99.90;;;;;;5073360;28;19924;-56
2022/10/09 06:41:47;;;;;;;;;;;5.20;99.90;;;;;;5069303;28;19935;-55
2022/10/09 06:44:44;;;;;;;;;;;5.10;99.90;;;;;;5085983;28;19928;-55
2022/10/09 06:47:11;;;;;;;;;;;5.20;99.90;;;;;;5065906;28;19925;-56
2022/10/09 06:49:39;;;;;;;;;;;5.20;99.90;;;;;;5074039;28;19924;-56
2022/10/09 06:52:07;;;;;;;;;;;5.30;99.90;;;;;;5067778;28;19932;-56
2022/10/09 06:54:35;;;;;;;;;;;5.30;99.90;;;;;;5066714;28;19929;-55
2022/10/09 06:57:05;;;;;;;;;;;5.40;99.90;;;;;;5055383;28;19924;-56
2022/10/09 06:59:32;;;;;;;;;;;5.40;99.90;;;;;;5072564;28;19927;-55
2022/10/09 07:02:00;;;;;;;;;;;5.50;99.90;;;;;;5087950;28;19924;-55
2022/10/09 07:04:28;;;;;;;;;;;5.60;99.90;;;;;;5084024;28;19924;-55
2022/10/09 07:06:56;;;;;;;;;;;5.60;99.90;;;;;;5067536;28;19924;-56
2022/10/09 07:09:23;;;;;;;;;;;5.70;99.90;;;;;;5071270;28;20415;-56
2022/10/09 07:11:51;;;;;;;;;;;5.70;99.90;;;;;;5067121;28;19935;-55
2022/10/09 07:14:18;;;;;;;;;;;5.80;99.90;;;;;;5056309;28;19932;-55
2022/10/09 07:16:47;;;;;;;;;;;5.90;99.90;;;;;;5083958;28;20371;-56
2022/10/09 07:19:16;;;;;;;;;;;5.90;99.90;;;;;;5079173;28;20299;-55
2022/10/09 07:21:44;;;;;;;;;;;6.00;99.90;;;;;;5076908;28;19924;-55
2022/10/09 07:24:12;;;;;;;;;;;6.00;99.90;;;;;;5079849;28;20298;-57
2022/10/09 07:26:43;;;;;;;;;;;6.10;99.90;;;;;;5070186;28;19924;-58
2022/10/09 07:29:12;;;;;;;;;;;6.20;99.90;;;;;;5066218;28;19932;-58
2022/10/09 07:31:40;;;;;;;;;;;6.10;99.90;;;;;;5064596;28;19936;-57
2022/10/09 07:34:07;;;;;;;;;;;6.20;99.90;;;;;;5072991;28;19951;-57
2022/10/09 07:36:35;;;;;;;;;;;6.20;99.90;;;;;;5062942;28;20392;-57
2022/10/09 07:39:03;;;;;;;;;;;6.20;99.90;;;;;;5066189;28;19928;-54
2022/10/09 07:41:31;;;;;;;;;;;6.30;99.90;;;;;;5072276;28;19925;-57
2022/10/09 07:43:58;;;;;;;;;;;6.30;99.90;;;;;;5054198;28;19928;-55
2022/10/09 07:46:27;;;;;;;;;;;6.40;99.90;;;;;;5074512;28;19943;-56
2022/10/09 07:49:00;;;;;;;;;;;6.50;99.90;;;;;;5076240;28;20261;-55
2022/10/09 07:51:28;;;;;;;;;;;6.50;99.90;;;;;;5072220;28;19928;-55
2022/10/09 07:53:56;;;;;;;;;;;6.60;99.90;;;;;;5076042;28;19924;-55
2022/10/09 07:56:26;;;;;;;;;;;6.70;99.90;;;;;;5069508;28;19925;-55
2022/10/09 07:58:55;;;;;;;;;;;6.70;99.90;;;;;;5078163;28;19924;-55
2022/10/09 08:01:23;;;;;;;;;;;6.80;99.90;;;;;;5076647;28;20513;-56
2022/10/09 08:03:51;;;;;;;;;;;6.90;99.90;;;;;;5080570;28;19935;-55
2022/10/09 08:06:18;;;;;;;;;;;7.00;99.90;;;;;;5077161;28;19936;-55
2022/10/09 08:08:50;;;;;;;;;;;7.10;99.90;;;;;;5072478;28;19924;-55
2022/10/09 08:11:18;;;;;;;;;;;7.20;99.90;;;;;;5067032;28;20345;-55
2022/10/09 08:13:46;;;;;;;;;;;7.30;99.90;;;;;;5095254;28;20394;-55
2022/10/09 08:16:14;;;;;;;;;;;7.30;99.90;;;;;;5103738;28;19924;-55
2022/10/09 08:18:42;;;;;;;;;;;7.40;99.90;;;;;;5065080;28;19936;-56
2022/10/09 08:21:11;;;;;;;;;;;7.50;99.90;;;;;;5078830;28;19924;-55
2022/10/09 08:23:38;;;;;;;;;;;7.60;99.90;;;;;;5066342;28;19932;-55
2022/10/09 08:26:13;;;;;;;;;;;7.80;99.90;;;;;;5067490;28;20376;-55
2022/10/09 08:28:40;;;;;;;;;;;8.00;99.90;;;;;;5070776;28;19929;-55
2022/10/09 08:31:11;;;;;;;;;;;8.10;99.90;;;;;;5071322;28;19935;-55
2022/10/09 08:33:39;;;;;;;;;;;8.20;99.90;;;;;;5077495;28;19927;-55
2022/10/09 08:36:07;;;;;;;;;;;8.30;99.90;;;;;;5076804;28;19928;-55
2022/10/09 08:38:35;;;;;;;;;;;8.30;99.90;;;;;;5068770;28;19931;-55
2022/10/09 08:41:32;;;;;;;;;;;8.50;99.90;;;;;;5078276;28;19925;-55
2022/10/09 08:44:10;;;;;;;;;;;8.60;99.90;;;;;;5074420;28;19924;-55
2022/10/09 08:46:44;;;;;;;;;;;8.70;99.90;;;;;;5072884;28;20611;-54
2022/10/09 08:49:18;;;;;;;;;;;8.80;99.90;;;;;;5072641;28;20241;-54
2022/10/09 08:51:45;;;;;;;;;;;8.80;99.90;;;;;;5069428;28;19935;-54
2022/10/09 08:54:31;;;;;;;;;;;8.90;99.90;;;;;;5073348;28;19932;-55
2022/10/09 08:57:01;;;;;;;;;;;9.00;99.90;;;;;;5069978;28;19946;-55
2022/10/09 08:59:29;;;;;;;;;;;9.10;99.90;;;;;;5077999;28;20448;-55
2022/10/09 09:02:15;;;;;;;;;;;9.10;99.90;;;;;;5075364;28;20403;-55
2022/10/09 09:04:55;;;;;;;;;;;9.30;99.90;;;;;;5070682;28;19924;-54
2022/10/09 09:07:30;;;;;;;;;;;9.40;99.90;;;;;;5066681;28;19951;-56
2022/10/09 09:09:58;;;;;;;;;;;9.60;99.90;;;;;;5068361;28;19928;-55
2022/10/09 09:12:43;;;;;;;;;;;9.70;99.90;;;;;;5069560;28;19924;-55
2022/10/09 09:15:21;;;;;;;;;;;9.80;99.90;;;;;;5084112;28;19925;-56
2022/10/09 09:17:54;;;;;;;;;;;10.00;99.90;;;;;;5069272;28;19933;-58
2022/10/09 09:20:22;;;;;;;;;;;10.10;99.90;;;;;;5071245;28;19935;-56
2022/10/09 09:22:50;;;;;;;;;;;10.10;99.90;;;;;;5074637;28;20296;-55
2022/10/09 09:25:18;;;;;;;;;;;10.10;99.90;;;;;;5069626;28;20292;-55
2022/10/09 09:27:46;;;;;;;;;;;10.10;99.90;;;;;;5082158;28;19924;-55
2022/10/09 09:30:26;;;;;;;;;;;10.20;99.90;;;;;;5071461;28;19928;-55
2022/10/09 09:32:58;;;;;;;;;;;10.20;99.90;;;;;;5080159;28;19936;-55
2022/10/09 09:35:34;;;;;;;;;;;10.20;99.90;;;;;;5067956;28;20403;-55
2022/10/09 09:38:02;;;;;;;;;;;10.30;99.90;;;;;;5066133;28;19935;-55
2022/10/09 09:40:32;;;;;;;;;;;10.30;99.90;;;;;;5057384;28;19932;-55
2022/10/09 09:43:25;;;;;;;;;;;10.50;99.90;;;;;;5078037;28;19928;-55
2022/10/09 09:45:54;;;;;;;;;;;10.60;99.90;;;;;;5067444;28;19924;-55
2022/10/09 09:48:25;;;;;;;;;;;10.70;99.90;;;;;;5067425;28;19928;-54
2022/10/09 09:50:53;;;;;;;;;;;10.80;99.90;;;;;;5081289;28;20378;-54
2022/10/09 09:53:45;;;;;;;;;;;10.90;99.90;;;;;;5094042;28;20121;-54
2022/10/09 09:56:14;;;;;;;;;;;11.10;99.90;;;;;;5071246;28;19932;-54
2022/10/09 09:58:44;;;;;;;;;;;11.20;99.90;;;;;;5066357;28;19928;-53
2022/10/09 10:01:20;;;;;;;;;;;11.30;99.90;;;;;;5100478;28;20241;-54
2022/10/09 10:03:49;;;;;;;;;;;11.50;99.90;;;;;;5086206;28;19928;-54
2022/10/09 10:06:21;;;;;;;;;;;11.60;99.90;;;;;;5065633;28;19925;-54
2022/10/09 10:09:03;;;;;;;;;;;11.70;99.90;;;;;;5067024;28;20292;-54
2022/10/09 10:11:32;;;;;;;;;;;11.90;99.90;;;;;;5085691;28;20295;-54
2022/10/09 10:14:06;;;;;;;;;;;12.00;99.90;;;;;;5093703;28;19932;-54
2022/10/09 10:16:36;;;;;;;;;;;12.10;99.90;;;;;;5066359;28;19936;-55
2022/10/09 10:19:04;;;;;;;;;;;12.20;99.90;;;;;;5066652;28;19928;-54
2022/10/09 10:21:39;;;;;;;;;;;12.30;99.90;;;;;;5086596;28;19942;-54
2022/10/09 10:24:10;;;;;;;;;;;12.30;99.90;;;;;;5089068;28;19924;-55
2022/10/09 10:26:42;;;;;;;;;;;12.40;99.90;;;;;;5086810;28;19924;-54
2022/10/09 10:29:15;;;;;;;;;;;12.50;99.90;;;;;;5084181;28;19928;-54
2022/10/09 10:31:51;;;;;;;;;;;12.60;99.90;;;;;;5069534;28;19925;-54
2022/10/09 10:34:39;;;;;;;;;;;12.80;99.90;;;;;;5072157;28;19928;-55
2022/10/09 10:37:09;;;;;;;;;;;13.00;99.90;;;;;;5066022;28;19928;-55
2022/10/09 10:39:48;;;;;;;;;;;13.20;99.90;;;;;;5072070;28;19928;-55
2022/10/09 10:42:30;;;;;;;;;;;13.40;99.90;;;;;;5104860;28;19927;-55
2022/10/09 10:45:02;;;;;;;;;;;13.60;99.90;;;;;;5089051;28;19931;-55
2022/10/09 10:47:33;;;;;;;;;;;13.70;99.90;;;;;;5066081;28;19925;-55
2022/10/09 10:50:01;;;;;;;;;;;13.80;99.90;;;;;;5081631;28;19924;-55
2022/10/09 10:52:28;;;;;;;;;;;13.90;99.90;;;;;;5085330;28;20319;-55
2022/10/09 10:54:55;;;;;;;;;;;14.00;99.90;;;;;;5087388;28;20364;-55
2022/10/09 10:57:41;;;;;;;;;;;14.10;99.90;;;;;;5089431;28;20379;-55
2022/10/09 11:00:09;;;;;;;;;;;14.30;99.90;;;;;;5083523;28;19928;-55
2022/10/09 11:03:15;;;;;;;;;;;14.50;99.90;;;;;;5085775;28;19931;-55
2022/10/09 11:05:53;;;;;;;;;;;14.60;99.90;;;;;;5059739;28;20557;-55
2022/10/09 11:08:24;;;;;;;;;;;14.90;99.90;;;;;;5029749;28;19924;-55
2022/10/09 11:10:54;;;;;;;;;;;15.10;99.90;;;;;;5092270;28;19928;-55
2022/10/09 11:13:24;;;;;;;;;;;15.20;99.90;;;;;;5103997;28;20406;-55
2022/10/09 11:16:07;;;;;;;;;;;15.40;99.90;;;;;;5079537;28;20269;-55
2022/10/09 11:18:39;;;;;;;;;;;15.40;99.90;;;;;;5069074;28;20396;-55
2022/10/09 11:21:16;;;;;;;;;;;15.40;99.90;;;;;;5083330;28;19940;-55
2022/10/09 11:24:04;;;;;;;;;;;15.40;99.90;;;;;;5068742;28;19924;-54
2022/10/09 11:26:42;;;;;;;;;;;15.40;99.90;;;;;;5088621;28;20190;-54
2022/10/09 11:29:14;;;;;;;;;;;15.40;99.90;;;;;;5086102;28;20306;-55
2022/10/09 11:31:43;;;;;;;;;;;15.40;99.90;;;;;;5066808;28;19924;-55
2022/10/09 11:34:14;;;;;;;;;;;15.50;99.90;;;;;;5065798;28;20398;-54
2022/10/09 11:36:43;;;;;;;;;;;15.60;99.90;;;;;;5084675;28;19928;-55
2022/10/09 11:39:24;;;;;;;;;;;15.60;99.90;;;;;;5069590;28;19948;-54
2022/10/09 11:41:53;;;;;;;;;;;15.50;99.90;;;;;;5067306;28;19932;-57
2022/10/09 11:44:30;;;;;;;;;;;15.30;99.90;;;;;;5070657;28;19928;-54
2022/10/09 11:47:03;;;;;;;;;;;15.30;99.90;;;;;;5072574;28;19925;-55
2022/10/09 11:49:39;;;;;;;;;;;15.10;99.90;;;;;;5077177;28;19931;-55
2022/10/09 11:52:11;;;;;;;;;;;15.00;99.90;;;;;;5099640;28;20383;-56
2022/10/09 11:54:39;;;;;;;;;;;15.10;99.90;;;;;;5073612;28;19936;-54
2022/10/09 11:57:07;;;;;;;;;;;15.20;99.90;;;;;;5067902;28;19935;-54
2022/10/09 11:59:41;;;;;;;;;;;15.30;99.90;;;;;;5075205;28;19931;-54
2022/10/09 12:02:18;;;;;;;;;;;15.30;99.90;;;;;;5064754;28;19935;-55
2022/10/09 12:04:46;;;;;;;;;;;15.20;99.90;;;;;;5066309;28;19928;-55
2022/10/09 12:07:29;;;;;;;;;;;15.00;99.90;;;;;;5064118;28;19929;-54
2022/10/09 12:10:16;;;;;;;;;;;14.90;99.90;;;;;;5070721;28;20269;-55
2022/10/09 12:12:43;;;;;;;;;;;14.80;99.90;;;;;;5086275;28;20379;-54
2022/10/09 12:15:22;;;;;;;;;;;14.80;99.90;;;;;;5073209;28;19966;-55
2022/10/09 12:17:50;;;;;;;;;;;14.80;99.90;;;;;;5066259;28;20287;-55
2022/10/09 12:20:21;;;;;;;;;;;14.90;99.90;;;;;;5071961;28;19928;-55
2022/10/09 12:22:51;;;;;;;;;;;15.00;99.90;;;;;;5086421;28;20296;-55
2022/10/09 12:25:43;;;;;;;;;;;15.10;99.90;;;;;;5071679;28;20288;-57
2022/10/09 12:28:20;;;;;;;;;;;15.20;99.90;;;;;;5083475;28;19924;-57
2022/10/09 12:30:49;;;;;;;;;;;15.20;99.90;;;;;;5082509;28;19935;-54
2022/10/09 12:33:21;;;;;;;;;;;15.30;99.90;;;;;;5078954;28;19929;-54
2022/10/09 12:36:07;;;;;;;;;;;15.40;99.90;;;;;;5073288;28;19928;-54
2022/10/09 12:38:35;;;;;;;;;;;15.50;99.90;;;;;;5062918;28;19932;-54
2022/10/09 12:41:04;;;;;;;;;;;15.50;99.90;;;;;;5077655;28;19947;-55
2022/10/09 12:43:32;;;;;;;;;;;15.30;99.90;;;;;;5093019;28;19935;-54
2022/10/09 12:46:00;;;;;;;;;;;15.30;99.90;;;;;;5067633;28;19950;-55
2022/10/09 12:48:28;;;;;;;;;;;15.10;99.90;;;;;;5081108;28;19924;-54
2022/10/09 12:50:55;;;;;;;;;;;15.00;99.90;;;;;;5098301;28;19928;-54
2022/10/09 12:53:24;;;;;;;;;;;14.90;99.90;;;;;;5094322;28;19928;-54
2022/10/09 12:55:54;;;;;;;;;;;14.90;99.90;;;;;;5084366;28;19924;-54
2022/10/09 12:58:23;;;;;;;;;;;14.90;99.90;;;;;;5063978;28;19947;-54
2022/10/09 13:00:53;;;;;;;;;;;14.80;99.90;;;;;;5089897;28;19924;-55
2022/10/09 13:03:51;;;;;;;;;;;14.80;99.90;;;;;;5086906;28;19931;-55
2022/10/09 13:06:19;;;;;;;;;;;14.90;99.90;;;;;;5063827;28;20288;-55
2022/10/09 13:08:54;;;;;;;;;;;14.90;99.90;;;;;;5064591;28;19924;-54
2022/10/09 13:11:32;;;;;;;;;;;15.00;99.90;;;;;;5100198;28;20389;-55
2022/10/09 13:14:00;;;;;;;;;;;15.00;99.90;;;;;;5108576;28;19923;-55
2022/10/09 13:16:40;;;;;;;;;;;15.00;99.90;;;;;;5098167;28;19925;-54
2022/10/09 13:19:22;;;;;;;;;;;15.00;99.90;;;;;;5076033;28;19932;-55
2022/10/09 13:22:19;;;;;;;;;;;15.00;99.90;;;;;;5067789;28;19948;-55
2022/10/09 13:24:49;;;;;;;;;;;15.00;99.90;;;;;;5064948;28;20383;-54
2022/10/09 13:27:18;;;;;;;;;;;14.90;99.90;;;;;;5067506;28;19925;-55
2022/10/09 13:29:46;;;;;;;;;;;15.00;99.90;;;;;;5070821;28;19928;-54
2022/10/09 13:32:17;;;;;;;;;;;14.90;99.90;;;;;;5069951;28;19929;-55
2022/10/09 13:34:46;;;;;;;;;;;14.90;99.90;;;;;;5070929;28;20323;-54
2022/10/09 13:37:14;;;;;;;;;;;15.00;99.90;;;;;;5082414;28;19998;-54
2022/10/09 13:39:42;;;;;;;;;;;15.00;99.90;;;;;;5076849;28;19932;-55
2022/10/09 13:42:11;;;;;;;;;;;15.10;99.90;;;;;;5107720;28;19939;-55
2022/10/09 13:44:39;;;;;;;;;;;15.20;99.90;;;;;;5084661;28;19939;-54
2022/10/09 13:47:06;;;;;;;;;;;15.40;99.90;;;;;;5068534;28;20396;-55
2022/10/09 13:49:34;;;;;;;;;;;15.50;99.90;;;;;;5082274;28;19931;-55
2022/10/09 13:52:01;;;;;;;;;;;15.50;99.90;;;;;;5086982;28;19932;-55
2022/10/09 13:54:29;;;;;;;;;;;15.60;99.90;;;;;;5086899;28;19935;-55
2022/10/09 13:56:56;;;;;;;;;;;15.60;99.90;;;;;;5077445;28;19928;-55
2022/10/09 13:59:24;;;;;;;;;;;15.60;99.90;;;;;;5067191;28;19932;-55
2022/10/09 14:01:52;;;;;;;;;;;15.70;99.90;;;;;;5085619;28;20334;-54
2022/10/09 14:04:20;;;;;;;;;;;15.70;99.90;;;;;;5073622;28;20391;-55
2022/10/09 14:06:47;;;;;;;;;;;15.70;99.90;;;;;;5067318;28;20364;-55
2022/10/09 14:09:15;;;;;;;;;;;15.70;99.90;;;;;;5067061;28;20372;-54
2022/10/09 14:11:46;;;;;;;;;;;15.70;99.90;;;;;;5074845;28;19925;-54
2022/10/09 14:14:13;;;;;;;;;;;15.70;99.90;;;;;;5095377;28;19923;-55
2022/10/09 14:16:41;;;;;;;;;;;15.70;99.90;;;;;;5065633;28;20380;-55
2022/10/09 14:19:09;;;;;;;;;;;15.70;99.90;;;;;;5072649;28;19928;-55
2022/10/09 14:21:36;;;;;;;;;;;15.60;99.90;;;;;;5083220;28;19935;-55
2022/10/09 14:24:04;;;;;;;;;;;15.60;99.90;;;;;;5082388;28;19939;-55
2022/10/09 14:26:33;;;;;;;;;;;15.50;99.90;;;;;;5075528;28;19925;-54
2022/10/09 14:29:01;;;;;;;;;;;15.50;99.90;;;;;;5067029;28;20368;-55
2022/10/09 14:31:29;;;;;;;;;;;15.50;99.90;;;;;;5080153;28;19929;-55
2022/10/09 14:33:57;;;;;;;;;;;15.40;99.90;;;;;;5095732;28;19935;-55
2022/10/09 14:36:25;;;;;;;;;;;15.40;99.90;;;;;;5107511;28;19928;-55
2022/10/09 14:38:52;;;;;;;;;;;15.40;99.90;;;;;;5069638;28;20335;-57
2022/10/09 14:41:20;;;;;;;;;;;15.30;99.90;;;;;;5082026;28;19925;-57
2022/10/09 14:43:55;;;;;;;;;;;15.30;99.90;;;;;;5088421;28;19925;-57
2022/10/09 14:46:22;;;;;;;;;;;15.30;99.90;;;;;;5065415;28;19925;-55